createdAt,value
2017-11-24T00:02:17.737Z,6.47
2017-11-24T00:04:45.947Z,6.50
2017-11-24T00:07:13.369Z,6.10
2017-11-24T00:09:40.824Z,6.60
2017-11-24T00:12:08.234Z,6.90
2017-11-24T00:14:35.861Z,6.37
2017-11-24T00:17:03.281Z,6.50
2017-11-24T00:19:30.717Z,5.93
2017-11-24T00:21:58.157Z,6.63
2017-11-24T00:24:25.599Z,6.53
2017-11-24T00:26:53.017Z,6.23
2017-11-24T00:29:21.220Z,6.00
2017-11-24T00:31:48.649Z,6.77
2017-11-24T00:34:16.845Z,7.03
2017-11-24T00:36:44.273Z,5.57
2017-11-24T00:39:11.696Z,7.60
2017-11-24T00:41:39.141Z,6.60
2017-11-24T00:44:06.565Z,7.13
2017-11-24T00:46:34.005Z,6.10
2017-11-24T00:49:02.193Z,6.60
2017-11-24T00:51:29.670Z,5.80
2017-11-24T00:53:57.089Z,6.03
2017-11-24T00:56:24.531Z,6.60
2017-11-24T00:58:51.957Z,7.13
2017-11-24T01:01:19.393Z,6.00
2017-11-24T01:03:46.829Z,7.20
2017-11-24T01:06:14.253Z,6.70
2017-11-24T01:08:41.683Z,6.57
2017-11-24T01:11:09.101Z,6.87
2017-11-24T01:13:36.553Z,6.07
2017-11-24T01:16:03.977Z,5.80
2017-11-24T01:18:32.177Z,5.80
2017-11-24T01:20:59.601Z,6.10
2017-11-24T01:23:27.045Z,6.30
2017-11-24T01:25:54.470Z,6.10
2017-11-24T01:28:21.906Z,6.70
2017-11-24T01:30:49.334Z,6.10
2017-11-24T01:33:17.531Z,7.40
2017-11-24T01:35:44.962Z,8.30
2017-11-24T01:38:13.174Z,7.53
2017-11-24T01:40:40.601Z,6.53
2017-11-24T01:43:08.038Z,6.10
2017-11-24T01:45:35.462Z,6.17
2017-11-24T01:48:02.886Z,7.00
2017-11-24T01:50:30.318Z,6.67
2017-11-24T01:52:58.521Z,6.87
2017-11-24T01:55:25.965Z,6.80
2017-11-24T01:57:53.401Z,6.43
2017-11-24T02:00:21.598Z,6.27
2017-11-24T02:02:49.182Z,7.53
2017-11-24T02:05:16.596Z,9.73
2017-11-24T02:07:44.793Z,6.53
2017-11-24T02:10:12.221Z,7.37
2017-11-24T02:12:40.404Z,6.47
2017-11-24T02:15:07.845Z,5.63
2017-11-24T02:17:35.269Z,7.83
2017-11-24T02:20:02.702Z,5.90
2017-11-24T02:22:30.130Z,6.83
2017-11-24T02:24:57.565Z,6.40
2017-11-24T02:27:25.757Z,7.23
2017-11-24T02:29:53.201Z,6.67
2017-11-24T02:32:21.408Z,6.60
2017-11-24T02:34:48.832Z,7.10
2017-11-24T02:37:17.034Z,6.37
2017-11-24T02:39:44.476Z,6.47
2017-11-24T02:42:11.901Z,6.97
2017-11-24T02:44:39.353Z,6.80
2017-11-24T02:47:06.794Z,5.20
2017-11-24T02:49:34.225Z,5.87
2017-11-24T02:52:01.661Z,6.07
2017-11-24T02:54:29.081Z,6.30
2017-11-24T02:56:56.521Z,6.60
2017-11-24T02:59:23.952Z,7.00
2017-11-24T03:01:51.385Z,6.10
2017-11-24T03:04:18.813Z,6.03
2017-11-24T03:06:47.018Z,6.17
2017-11-24T03:09:14.441Z,6.37
2017-11-24T03:11:42.640Z,6.10
2017-11-24T03:14:10.074Z,6.10
2017-11-24T03:16:37.502Z,7.13
2017-11-24T03:19:04.942Z,5.33
2017-11-24T03:21:32.362Z,7.17
2017-11-24T03:23:59.797Z,6.43
2017-11-24T03:26:27.990Z,6.10
2017-11-24T03:28:55.441Z,6.60
2017-11-24T03:31:22.863Z,6.20
2017-11-24T03:33:50.309Z,7.67
2017-11-24T03:36:17.739Z,7.03
2017-11-24T03:38:45.168Z,6.83
2017-11-24T03:41:12.601Z,5.80
2017-11-24T03:43:40.033Z,6.70
2017-11-24T03:46:07.466Z,6.27
2017-11-24T03:48:34.906Z,6.67
2017-11-24T03:51:02.330Z,7.27
2017-11-24T03:53:30.525Z,6.40
2017-11-24T03:55:57.962Z,6.63
2017-11-24T03:58:26.152Z,6.90
2017-11-24T04:00:53.584Z,5.87
2017-11-24T04:03:21.293Z,6.20
2017-11-24T04:05:48.704Z,5.80
2017-11-24T04:08:16.901Z,6.00
2017-11-24T04:10:44.342Z,5.63
2017-11-24T04:13:12.533Z,6.50
2017-11-24T04:15:39.965Z,5.77
2017-11-24T04:18:08.161Z,7.40
2017-11-24T04:20:35.590Z,6.80
2017-11-24T04:23:03.786Z,5.33
2017-11-24T04:25:31.237Z,6.50
2017-11-24T04:27:59.424Z,6.20
2017-11-24T04:30:27.041Z,6.10
2017-11-24T04:32:54.479Z,6.63
2017-11-24T04:35:22.266Z,6.33
2017-11-24T04:37:49.701Z,6.40
2017-11-24T04:40:17.132Z,5.93
2017-11-24T04:42:45.325Z,6.67
2017-11-24T04:45:12.759Z,5.93
2017-11-24T04:47:40.197Z,7.27
2017-11-24T04:50:07.622Z,6.50
2017-11-24T04:52:35.060Z,5.90
2017-11-24T04:55:02.510Z,5.50
2017-11-24T04:57:29.940Z,7.10
2017-11-24T04:59:57.361Z,5.60
2017-11-24T05:02:25.563Z,5.57
2017-11-24T05:04:52.986Z,5.63
2017-11-24T05:07:21.218Z,6.23
2017-11-24T05:09:48.657Z,5.83
2017-11-24T05:12:16.077Z,5.97
2017-11-24T05:14:43.518Z,7.17
2017-11-24T05:17:11.705Z,5.57
2017-11-24T05:19:39.241Z,5.27
2017-11-24T05:22:06.669Z,5.07
2017-11-24T05:24:34.105Z,5.10
2017-11-24T05:27:01.529Z,6.13
2017-11-24T05:29:29.733Z,6.37
2017-11-24T05:31:57.154Z,5.07
2017-11-24T05:34:24.621Z,5.97
2017-11-24T05:36:52.043Z,6.17
2017-11-24T05:39:19.480Z,5.17
2017-11-24T05:41:46.919Z,5.50
2017-11-24T05:44:14.352Z,6.50
2017-11-24T05:46:41.781Z,5.40
2017-11-24T05:49:09.226Z,6.60
2017-11-24T05:51:36.670Z,4.80
2017-11-24T05:54:04.099Z,5.63
2017-11-24T05:56:31.534Z,6.07
2017-11-24T05:58:58.955Z,5.77
2017-11-24T06:01:26.389Z,7.40
2017-11-24T06:03:53.828Z,6.20
2017-11-24T06:06:21.273Z,6.80
2017-11-24T06:08:48.706Z,7.23
2017-11-24T06:11:16.453Z,7.07
2017-11-24T06:13:43.878Z,6.23
2017-11-24T06:16:11.315Z,5.90
2017-11-24T06:18:38.742Z,7.00
2017-11-24T06:21:07.185Z,6.00
2017-11-24T06:23:34.624Z,6.57
2017-11-24T06:26:02.046Z,6.80
2017-11-24T06:28:29.467Z,6.60
2017-11-24T06:30:57.692Z,6.93
2017-11-24T06:33:25.113Z,7.13
2017-11-24T06:35:52.541Z,7.83
2017-11-24T06:38:19.976Z,7.67
2017-11-24T06:40:47.409Z,7.33
2017-11-24T06:43:14.860Z,7.07
2017-11-24T06:45:42.289Z,8.53
2017-11-24T06:48:09.757Z,8.93
2017-11-24T06:50:37.587Z,6.50
2017-11-24T06:53:05.013Z,7.20
2017-11-24T06:55:32.445Z,8.13
2017-11-24T06:57:59.873Z,6.63
2017-11-24T07:00:28.079Z,6.80
2017-11-24T07:02:55.518Z,7.03
2017-11-24T07:05:22.956Z,7.53
2017-11-24T07:07:51.145Z,8.10
2017-11-24T07:10:18.577Z,5.87
2017-11-24T07:12:46.001Z,6.73
2017-11-24T07:15:13.468Z,7.10
2017-11-24T07:17:40.893Z,7.33
2017-11-24T07:20:08.330Z,5.70
2017-11-24T07:22:35.758Z,6.77
2017-11-24T07:25:03.957Z,6.53
2017-11-24T07:27:31.392Z,6.50
2017-11-24T07:29:58.833Z,6.53
2017-11-24T07:32:27.025Z,6.10
2017-11-24T07:34:55.213Z,6.43
2017-11-24T07:37:22.704Z,7.20
2017-11-24T07:39:50.887Z,6.40
2017-11-24T07:42:18.329Z,5.90
2017-11-24T07:44:45.768Z,6.17
2017-11-24T07:47:14.145Z,5.63
2017-11-24T07:49:41.682Z,5.90
2017-11-24T07:52:09.870Z,7.20
2017-11-24T07:54:37.297Z,6.77
2017-11-24T07:57:04.730Z,6.93
2017-11-24T07:59:32.149Z,6.40
2017-11-24T08:01:59.577Z,7.10
2017-11-24T08:04:26.993Z,5.67
2017-11-24T08:06:54.446Z,5.97
2017-11-24T08:09:21.877Z,6.70
2017-11-24T08:11:49.303Z,6.37
2017-11-24T08:14:16.744Z,5.53
2017-11-24T08:16:44.936Z,7.00
2017-11-24T08:19:12.367Z,6.57
2017-11-24T08:21:40.552Z,6.57
2017-11-24T08:24:08.044Z,7.03
2017-11-24T08:26:35.506Z,6.90
2017-11-24T08:29:02.942Z,6.47
2017-11-24T08:31:30.367Z,6.63
2017-11-24T08:33:58.574Z,6.73
2017-11-24T08:36:26.018Z,5.83
2017-11-24T08:38:53.553Z,6.97
2017-11-24T08:41:21.753Z,7.17
2017-11-24T08:43:49.188Z,6.97
2017-11-24T08:46:22.186Z,6.10
2017-11-24T08:48:55.349Z,6.17
2017-11-24T08:51:22.776Z,5.87
2017-11-24T08:53:50.201Z,5.03
2017-11-24T08:56:17.625Z,4.90
2017-11-24T08:58:45.055Z,5.63
2017-11-24T09:01:12.505Z,5.13
2017-11-24T09:03:39.934Z,5.20
2017-11-24T09:06:07.373Z,5.37
2017-11-24T09:08:34.802Z,4.77
2017-11-24T09:11:02.230Z,5.10
2017-11-24T09:13:29.665Z,5.97
2017-11-24T09:15:57.099Z,4.70
2017-11-24T09:18:24.525Z,4.93
2017-11-24T09:20:52.726Z,4.57
2017-11-24T09:23:20.145Z,5.33
2017-11-24T09:25:47.578Z,4.77
2017-11-24T09:28:15.020Z,4.70
2017-11-24T09:30:42.432Z,4.60
2017-11-24T09:33:09.873Z,5.10
2017-11-24T09:35:37.305Z,4.60
2017-11-24T09:38:04.736Z,5.00
2017-11-24T09:40:32.165Z,4.60
2017-11-24T09:42:59.609Z,4.87
2017-11-24T09:45:27.206Z,5.83
2017-11-24T09:47:54.654Z,4.93
2017-11-24T09:50:22.087Z,4.47
2017-11-24T09:52:50.293Z,5.53
2017-11-24T09:55:17.725Z,6.10
2017-11-24T09:57:45.142Z,5.23
2017-11-24T10:00:12.913Z,5.50
2017-11-24T10:02:40.391Z,4.20
2017-11-24T10:05:07.789Z,5.30
2017-11-24T10:07:35.224Z,6.70
2017-11-24T10:10:02.655Z,5.70
2017-11-24T10:12:30.841Z,4.80
2017-11-24T10:14:58.281Z,6.20
2017-11-24T10:17:25.709Z,5.17
2017-11-24T10:19:53.140Z,5.73
2017-11-24T10:22:26.113Z,4.20
2017-11-24T10:24:53.547Z,4.50
2017-11-24T10:27:21.733Z,5.80
2017-11-24T10:29:49.175Z,4.60
2017-11-24T10:32:16.604Z,4.53
2017-11-24T10:34:44.029Z,4.63
2017-11-24T10:37:11.455Z,5.83
2017-11-24T10:39:38.880Z,5.10
2017-11-24T10:42:07.072Z,4.63
2017-11-24T10:44:34.498Z,5.80
2017-11-24T10:47:01.921Z,4.47
2017-11-24T10:49:29.357Z,5.03
2017-11-24T10:51:56.820Z,4.47
2017-11-24T10:54:24.220Z,5.10
2017-11-24T10:56:51.676Z,4.33
2017-11-24T10:59:19.088Z,4.00
2017-11-24T11:01:46.501Z,5.30
2017-11-24T11:04:13.939Z,4.83
2017-11-24T11:06:41.361Z,4.43
2017-11-24T11:09:08.792Z,3.83
2017-11-24T11:11:36.209Z,3.90
2017-11-24T11:14:03.653Z,4.30
2017-11-24T11:16:31.062Z,4.50
2017-11-24T11:18:58.495Z,4.50
2017-11-24T11:21:26.681Z,3.90
2017-11-24T11:23:54.117Z,4.47
2017-11-24T11:26:21.540Z,5.03
2017-11-24T11:28:48.978Z,4.17
2017-11-24T11:31:16.392Z,4.17
2017-11-24T11:33:44.605Z,4.10
2017-11-24T11:36:12.049Z,4.23
2017-11-24T11:38:40.213Z,5.17
2017-11-24T11:41:07.644Z,4.47
2017-11-24T11:43:35.070Z,4.03
2017-11-24T11:46:02.511Z,4.20
2017-11-24T11:48:29.939Z,4.10
2017-11-24T11:50:57.407Z,4.40
2017-11-24T11:53:24.821Z,4.10
2017-11-24T11:55:52.252Z,4.77
2017-11-24T11:58:19.675Z,4.00
2017-11-24T12:00:47.097Z,3.90
2017-11-24T12:03:15.298Z,4.10
2017-11-24T12:05:42.737Z,4.27
2017-11-24T12:08:10.161Z,5.20
2017-11-24T12:10:37.590Z,4.30
2017-11-24T12:13:05.022Z,4.37
2017-11-24T12:15:32.445Z,3.90
2017-11-24T12:18:00.644Z,5.23
2017-11-24T12:20:28.076Z,4.10
2017-11-24T12:22:55.505Z,4.33
2017-11-24T12:25:22.928Z,3.70
2017-11-24T12:27:50.366Z,4.37
2017-11-24T12:30:17.777Z,5.30
2017-11-24T12:32:45.217Z,5.33
2017-11-24T12:35:12.644Z,3.90
2017-11-24T12:37:40.065Z,4.60
2017-11-24T12:40:07.494Z,4.47
2017-11-24T12:42:34.916Z,4.80
2017-11-24T12:45:02.351Z,6.90
2017-11-24T12:47:29.777Z,7.07
2017-11-24T12:49:57.209Z,5.40
2017-11-24T12:52:24.637Z,5.10
2017-11-24T12:54:52.065Z,4.23
2017-11-24T12:57:19.489Z,4.23
2017-11-24T12:59:46.929Z,4.90
2017-11-24T13:02:14.372Z,4.87
2017-11-24T13:04:41.878Z,4.57
2017-11-24T13:07:10.073Z,6.03
2017-11-24T13:09:37.499Z,5.23
2017-11-24T13:12:04.931Z,4.73
2017-11-24T13:14:32.349Z,4.53
2017-11-24T13:16:59.776Z,4.40
2017-11-24T13:19:27.970Z,4.17
2017-11-24T13:21:55.401Z,3.90
2017-11-24T13:24:22.827Z,4.70
2017-11-24T13:26:51.027Z,4.63
2017-11-24T13:29:18.453Z,6.40
2017-11-24T13:31:45.913Z,6.40
2017-11-24T13:34:13.344Z,4.70
2017-11-24T13:36:40.792Z,5.00
2017-11-24T13:39:08.209Z,4.90
2017-11-24T13:41:35.630Z,4.60
2017-11-24T13:44:03.076Z,4.77
2017-11-24T13:46:30.499Z,4.80
2017-11-24T13:48:57.970Z,5.77
2017-11-24T13:51:25.374Z,4.10
2017-11-24T13:53:52.884Z,4.90
2017-11-24T13:56:20.289Z,6.07
2017-11-24T13:58:47.719Z,4.60
2017-11-24T14:01:15.158Z,5.70
2017-11-24T14:03:42.592Z,5.40
2017-11-24T14:06:10.010Z,4.43
2017-11-24T14:08:37.433Z,4.67
2017-11-24T14:11:04.853Z,5.17
2017-11-24T14:13:32.289Z,4.87
2017-11-24T14:15:59.728Z,5.10
2017-11-24T14:18:27.141Z,4.90
2017-11-24T14:20:54.577Z,5.33
2017-11-24T14:23:22.017Z,5.15
2017-11-24T14:25:50.200Z,4.30
2017-11-24T14:28:17.621Z,4.57
2017-11-24T14:30:45.046Z,6.30
2017-11-24T14:33:12.473Z,6.50
2017-11-24T14:35:39.904Z,7.50
2017-11-24T14:38:08.099Z,6.00
2017-11-24T14:40:35.529Z,6.53
2017-11-24T14:43:03.713Z,4.80
2017-11-24T14:45:31.130Z,4.23
2017-11-24T14:47:58.577Z,5.80
2017-11-24T14:50:26.001Z,5.10
2017-11-24T14:52:53.420Z,5.57
2017-11-24T14:55:20.846Z,5.80
2017-11-24T14:57:48.278Z,5.40
2017-11-24T15:00:15.696Z,5.10
2017-11-24T15:02:43.911Z,5.33
2017-11-24T15:05:11.345Z,5.40
2017-11-24T15:07:38.784Z,6.73
2017-11-24T15:10:06.961Z,5.27
2017-11-24T15:12:34.385Z,4.43
2017-11-24T15:15:01.825Z,4.93
2017-11-24T15:17:29.265Z,6.70
2017-11-24T15:19:56.677Z,4.90
2017-11-24T15:22:24.105Z,5.77
2017-11-24T15:24:51.541Z,5.20
2017-11-24T15:27:18.969Z,4.83
2017-11-24T15:29:46.405Z,4.50
2017-11-24T15:32:14.598Z,5.93
2017-11-24T15:34:42.029Z,4.70
2017-11-24T15:37:09.445Z,4.60
2017-11-24T15:39:36.906Z,6.53
2017-11-24T15:42:04.320Z,6.73
2017-11-24T15:44:31.741Z,5.23
2017-11-24T15:46:59.178Z,5.57
2017-11-24T15:49:26.606Z,6.63
2017-11-24T15:51:54.036Z,6.07
2017-11-24T15:54:21.457Z,5.60
2017-11-24T15:56:48.897Z,5.23
2017-11-24T15:59:16.335Z,5.03
2017-11-24T16:01:43.758Z,6.07
2017-11-24T16:04:11.179Z,5.30
2017-11-24T16:06:38.633Z,5.27
2017-11-24T16:09:06.069Z,5.17
2017-11-24T16:11:33.481Z,5.40
2017-11-24T16:14:00.920Z,5.90
2017-11-24T16:16:28.526Z,5.63
2017-11-24T16:18:55.950Z,6.07
2017-11-24T16:21:23.372Z,4.80
2017-11-24T16:23:50.808Z,4.83
2017-11-24T16:26:18.240Z,5.27
2017-11-24T16:28:45.685Z,5.63
2017-11-24T16:31:13.117Z,5.40
2017-11-24T16:33:40.529Z,5.30
2017-11-24T16:36:07.969Z,5.23
2017-11-24T16:38:35.385Z,4.60
2017-11-24T16:41:02.875Z,5.10
2017-11-24T16:43:30.315Z,5.30
2017-11-24T16:45:57.730Z,5.50
2017-11-24T16:48:25.154Z,4.83
2017-11-24T16:50:52.595Z,5.27
2017-11-24T16:53:20.023Z,6.63
2017-11-24T16:58:51.220Z,5.77
2017-11-24T17:01:18.649Z,7.43
2017-11-24T17:03:46.083Z,6.70
2017-11-24T17:06:13.517Z,6.10
2017-11-24T17:08:40.947Z,5.70
2017-11-24T17:11:08.386Z,5.90
2017-11-24T17:13:35.805Z,6.53
2017-11-24T17:16:03.234Z,5.30
2017-11-24T17:18:30.674Z,5.85
2017-11-24T17:20:58.104Z,7.00
2017-11-24T17:23:26.317Z,6.80
2017-11-24T17:25:53.730Z,6.20
2017-11-24T17:28:21.177Z,6.40
2017-11-24T17:30:48.606Z,5.50
2017-11-24T17:33:16.043Z,6.37
2017-11-24T17:35:43.461Z,5.93
2017-11-24T17:38:11.663Z,5.63
2017-11-24T17:40:39.096Z,6.80
2017-11-24T17:43:06.523Z,8.13
2017-11-24T17:45:33.945Z,6.00
2017-11-24T17:48:01.385Z,6.90
2017-11-24T17:50:28.812Z,6.67
2017-11-24T17:52:56.998Z,7.15
2017-11-24T17:55:24.446Z,7.40
2017-11-24T17:57:51.876Z,6.30
2017-11-24T18:00:19.306Z,6.83
2017-11-24T18:02:46.730Z,5.90
2017-11-24T18:05:14.163Z,7.50
2017-11-24T18:07:42.357Z,7.93
2017-11-24T18:10:09.793Z,10.97
2017-11-24T18:12:37.224Z,8.10
2017-11-24T18:15:04.954Z,7.27
2017-11-24T18:17:32.372Z,8.07
2017-11-24T18:20:00.586Z,7.53
2017-11-24T18:22:28.005Z,6.23
2017-11-24T18:24:55.470Z,7.07
2017-11-24T18:27:22.889Z,7.50
2017-11-24T18:29:50.318Z,6.90
2017-11-24T18:32:17.748Z,6.87
2017-11-24T18:34:45.172Z,5.47
2017-11-24T18:37:13.380Z,6.77
2017-11-24T18:39:40.814Z,6.30
2017-11-24T18:42:08.246Z,6.07
2017-11-24T18:44:36.065Z,7.73
2017-11-24T18:47:03.516Z,6.83
2017-11-24T18:49:30.950Z,7.90
2017-11-24T18:51:59.136Z,7.63
2017-11-24T18:54:26.573Z,7.43
2017-11-24T18:56:53.985Z,6.90
2017-11-24T18:59:22.197Z,4.60
2017-11-24T19:01:50.398Z,3.73
2017-11-24T19:04:17.831Z,4.20
2017-11-24T19:06:45.253Z,4.50
2017-11-24T19:09:12.696Z,3.50
2017-11-24T19:14:32.812Z,4.80
2017-11-24T19:17:00.245Z,4.47
2017-11-24T19:19:27.683Z,4.87
2017-11-24T19:21:55.109Z,6.30
2017-11-24T19:24:22.548Z,7.40
2017-11-24T19:26:50.080Z,4.30
2017-11-24T19:29:18.233Z,3.80
2017-11-24T19:31:45.665Z,5.80
2017-11-24T19:34:13.079Z,5.87
2017-11-24T19:36:40.517Z,5.23
2017-11-24T19:39:07.961Z,4.50
2017-11-24T19:41:35.448Z,3.63
2017-11-24T19:44:02.909Z,6.90
2017-11-24T19:46:30.361Z,4.20
2017-11-24T19:48:57.785Z,5.00
2017-11-24T19:51:25.196Z,5.97
2017-11-24T19:53:52.706Z,5.60
2017-11-24T19:56:20.131Z,5.50
2017-11-24T19:58:47.553Z,5.30
2017-11-24T20:01:16.598Z,5.70
2017-11-24T20:03:44.022Z,4.53
2017-11-24T20:06:11.450Z,5.03
2017-11-24T20:08:38.895Z,4.90
2017-11-24T20:11:06.331Z,4.53
2017-11-24T20:13:33.752Z,3.97
2017-11-24T20:16:01.177Z,4.53
2017-11-24T20:18:28.613Z,4.90
2017-11-24T20:20:56.043Z,5.30
2017-11-24T20:23:23.480Z,6.77
2017-11-24T20:25:50.906Z,7.60
2017-11-24T20:28:19.105Z,8.80
2017-11-24T20:30:46.526Z,9.40
2017-11-24T20:33:13.956Z,8.63
2017-11-24T20:35:41.385Z,8.97
2017-11-24T20:38:08.805Z,10.13
2017-11-24T20:40:36.232Z,8.20
2017-11-24T20:43:03.659Z,9.07
2017-11-24T20:45:31.076Z,8.50
2017-11-24T20:47:59.278Z,8.70
2017-11-24T20:50:26.700Z,9.47
2017-11-24T20:52:54.129Z,8.17
2017-11-24T20:55:21.557Z,8.00
2017-11-24T20:57:48.985Z,7.73
2017-11-24T21:00:16.430Z,8.37
2017-11-24T21:02:44.614Z,7.30
2017-11-24T21:05:12.048Z,7.30
2017-11-24T21:07:39.473Z,7.83
2017-11-24T21:10:06.911Z,7.00
2017-11-24T21:12:34.328Z,8.10
2017-11-24T21:15:02.534Z,7.90
2017-11-24T21:17:29.966Z,8.37
2017-11-24T21:19:58.137Z,7.63
2017-11-24T21:22:25.573Z,8.50
2017-11-24T21:24:52.986Z,8.00
2017-11-24T21:27:20.414Z,8.13
2017-11-24T21:29:47.841Z,7.43
2017-11-24T21:32:15.273Z,8.30
2017-11-24T21:34:42.692Z,7.60
2017-11-24T21:37:10.118Z,8.47
2017-11-24T21:39:38.320Z,8.37
2017-11-24T21:42:05.750Z,9.00
2017-11-24T21:44:33.937Z,9.37
2017-11-24T21:47:01.365Z,9.27
2017-11-24T21:49:29.557Z,9.63
2017-11-24T21:51:57.757Z,9.23
2017-11-24T21:54:25.169Z,9.03
2017-11-24T21:56:52.615Z,10.07
2017-11-24T21:59:20.037Z,10.30
2017-11-24T22:01:47.467Z,9.63
2017-11-24T22:04:14.893Z,9.23
2017-11-24T22:06:43.085Z,10.53
2017-11-24T22:09:10.521Z,9.53
2017-11-24T22:11:37.954Z,9.33
2017-11-24T22:14:05.381Z,8.80
2017-11-24T22:16:32.804Z,8.70
2017-11-24T22:19:00.241Z,8.90
2017-11-24T22:21:28.437Z,6.50
2017-11-24T22:23:55.869Z,6.77
2017-11-24T22:26:23.292Z,6.10
2017-11-24T22:28:50.730Z,6.53
2017-11-24T22:31:18.153Z,5.60
2017-11-24T22:33:46.345Z,6.80
2017-11-24T22:36:13.761Z,5.93
2017-11-24T22:38:41.193Z,5.90
2017-11-24T22:41:08.617Z,5.37
2017-11-24T22:43:36.066Z,5.07
2017-11-24T22:46:03.497Z,5.13
2017-11-24T22:48:31.668Z,5.10
2017-11-24T22:50:59.097Z,5.20
2017-11-24T22:53:26.516Z,6.30
2017-11-24T22:55:53.953Z,5.70
2017-11-24T22:58:22.129Z,4.73
2017-11-24T23:00:49.561Z,4.20
2017-11-24T23:03:17.746Z,5.00
2017-11-24T23:05:45.182Z,4.70
2017-11-24T23:08:12.597Z,5.73
2017-11-24T23:10:40.036Z,6.10
2017-11-24T23:13:07.481Z,6.40
2017-11-24T23:15:34.917Z,6.53
2017-11-24T23:18:02.344Z,6.60
2017-11-24T23:20:29.769Z,5.97
2017-11-24T23:22:57.201Z,6.67
2017-11-24T23:25:24.618Z,6.57
2017-11-24T23:27:52.049Z,7.23
2017-11-24T23:30:19.479Z,6.70
2017-11-24T23:32:46.899Z,6.90
2017-11-24T23:35:14.325Z,6.60
2017-11-24T23:37:41.759Z,7.60
2017-11-24T23:40:09.181Z,6.63
2017-11-24T23:42:36.613Z,6.43
2017-11-24T23:45:04.031Z,7.63
2017-11-24T23:47:31.460Z,8.13
2017-11-24T23:49:58.883Z,8.40
2017-11-24T23:52:26.448Z,8.60
2017-11-24T23:54:53.873Z,8.10
2017-11-24T23:57:21.296Z,9.20
2017-11-24T23:59:48.762Z,8.90
